Time;durP1;ratioP1;P1;durP2;ratioP2;P2;SDS_P1;SDS_P2;PMS_P1;PMS_P2;Temp;Humidity;BMP_temperature;BMP_pressure;BME280_temperature;BME280_humidity;BME280_pressure;Samples;Min_cycle;Max_cycle;Signal;HPM_P1;HPM_P2
2023/04/02 00:01:35;;;;;;;12.25;9.55;;;7.80;99.90;;;;;;5042036;28;20426;-43
2023/04/02 00:04:04;;;;;;;8.05;7.22;;;7.80;99.90;;;;;;5043466;28;20068;-43
2023/04/02 00:06:34;;;;;;;9.20;8.27;;;7.70;99.90;;;;;;5042760;28;20103;-44
2023/04/02 00:09:14;;;;;;;8.90;7.90;;;7.70;99.90;;;;;;5042310;28;20037;-43
2023/04/02 00:11:47;;;;;;;11.25;8.77;;;7.70;99.90;;;;;;5042956;28;20112;-42
2023/04/02 00:14:23;;;;;;;7.93;7.13;;;7.70;99.90;;;;;;5042472;28;20036;-43
2023/04/02 00:16:50;;;;;;;7.40;6.45;;;7.70;99.90;;;;;;5041628;28;20037;-42
2023/04/02 00:19:23;;;;;;;7.85;6.57;;;7.60;99.90;;;;;;5042207;28;20047;-42
2023/04/02 00:21:49;;;;;;;;;;;7.70;99.90;;;;;;5042777;28;20563;-43
2023/04/02 00:24:18;;;;;;;6.50;5.90;;;7.60;99.90;;;;;;5041581;28;19916;-44
2023/04/02 00:26:54;;;;;;;6.97;6.00;;;7.60;99.90;;;;;;5042606;28;20111;-43
2023/04/02 00:29:20;;;;;;;8.30;6.53;;;7.60;99.90;;;;;;5040790;28;20065;-42
2023/04/02 00:31:53;;;;;;;8.45;6.32;;;7.60;99.90;;;;;;5042713;28;20090;-43
2023/04/02 00:34:24;;;;;;;8.30;7.50;;;7.60;99.90;;;;;;5041913;28;20025;-43
2023/04/02 00:36:55;;;;;;;9.13;8.23;;;7.60;99.90;;;;;;5042121;28;20024;-43
2023/04/02 00:39:30;;;;;;;7.35;6.65;;;7.60;99.90;;;;;;5042573;28;20053;-43
2023/04/02 00:42:04;;;;;;;7.57;6.78;;;7.60;99.90;;;;;;5042162;28;20029;-43
2023/04/02 00:44:43;;;;;;;7.28;6.50;;;7.60;99.90;;;;;;5042260;28;20017;-44
2023/04/02 00:47:14;;;;;;;8.15;6.57;;;7.60;99.90;;;;;;5041303;28;20465;-43
2023/04/02 00:49:40;;;;;;;11.25;8.30;;;7.60;99.90;;;;;;5042611;28;20095;-43
2023/04/02 00:52:14;;;;;;;9.43;8.43;;;7.60;99.90;;;;;;5041284;28;20025;-42
2023/04/02 00:55:41;;;;;;;8.18;6.85;;;7.60;99.90;;;;;;5042404;28;20103;-43
2023/04/02 00:58:24;;;;;;;7.85;7.05;;;7.60;99.90;;;;;;4978315;28;20513;-43
2023/04/02 01:00:51;;;;;;;8.50;7.38;;;7.60;99.90;;;;;;4979742;28;20077;-42
2023/04/02 01:03:18;;;;;;;8.35;6.82;;;7.50;99.90;;;;;;5016298;28;20060;-43
2023/04/02 01:05:49;;;;;;;7.68;6.88;;;7.50;99.90;;;;;;5041864;28;20043;-42
2023/04/02 01:08:25;;;;;;;8.73;7.78;;;7.60;99.90;;;;;;5040290;28;20090;-42
2023/04/02 01:11:06;;;;;;;8.68;7.78;;;7.50;99.90;;;;;;5022520;28;20029;-42
2023/04/02 01:13:37;;;;;;;7.80;7.10;;;7.50;99.90;;;;;;5038490;28;20170;-42
2023/04/02 01:16:31;;;;;;;7.82;6.68;;;7.50;99.90;;;;;;5041104;28;20021;-43
2023/04/02 01:19:31;;;;;;;7.47;6.72;;;7.40;99.90;;;;;;5040721;28;20037;-42
2023/04/02 01:22:05;;;;;;;6.70;6.00;;;7.50;99.90;;;;;;5041950;28;20040;-42
2023/04/02 01:24:33;;;;;;;7.82;6.75;;;7.50;99.90;;;;;;5039003;28;20044;-43
2023/04/02 01:27:03;;;;;;;9.48;7.90;;;7.40;99.90;;;;;;5040678;28;20032;-43
2023/04/02 01:29:59;;;;;;;7.75;6.53;;;7.40;99.90;;;;;;5040012;28;20494;-43
2023/04/02 01:32:27;;;;;;;7.30;6.50;;;7.40;99.90;;;;;;5034796;28;20130;-42
2023/04/02 01:34:54;;;;;;;8.13;6.43;;;7.40;99.90;;;;;;5041485;28;20061;-43
2023/04/02 01:37:55;;;;;;;7.72;6.30;;;7.40;99.90;;;;;;5040969;28;20106;-44
2023/04/02 01:40:44;;;;;;;8.82;7.10;;;7.30;99.90;;;;;;5039285;28;20036;-42
2023/04/02 01:43:33;;;;;;;8.88;7.30;;;7.30;99.90;;;;;;5041229;28;20033;-43
2023/04/02 01:46:03;;;;;;;8.15;7.30;;;7.30;99.90;;;;;;5038006;28;20100;-42
2023/04/02 01:48:30;;;;;;;9.30;7.35;;;7.20;99.90;;;;;;5040473;28;20037;-43
2023/04/02 01:50:59;;;;;;;11.85;7.05;;;7.20;99.90;;;;;;5041190;28;20118;-42
2023/04/02 01:53:29;;;;;;;7.30;5.88;;;7.20;99.90;;;;;;5040677;28;20074;-42
2023/04/02 01:55:58;;;;;;;8.65;5.97;;;7.20;99.90;;;;;;5041124;28;20388;-43
2023/04/02 01:58:27;;;;;;;7.43;6.72;;;7.20;99.90;;;;;;5040362;28;20029;-42
2023/04/02 02:01:00;;;;;;;7.45;6.65;;;7.20;99.90;;;;;;5040181;28;20693;-43
2023/04/02 02:03:27;;;;;;;7.32;6.60;;;7.20;99.90;;;;;;5040886;28;20059;-43
2023/04/02 02:05:53;;;;;;;6.80;6.15;;;7.20;99.90;;;;;;5040715;28;20017;-42
2023/04/02 02:08:30;;;;;;;6.40;5.70;;;7.20;99.90;;;;;;5039286;28;20538;-42
2023/04/02 02:10:57;;;;;;;8.07;6.20;;;7.20;99.90;;;;;;5040671;28;20119;-43
2023/04/02 02:13:22;;;;;;;9.35;7.70;;;7.20;99.90;;;;;;5040728;28;20143;-42
2023/04/02 02:15:49;;;;;;;8.60;7.65;;;7.20;99.90;;;;;;5040120;28;20568;-42
2023/04/02 02:18:19;;;;;;;11.23;9.07;;;7.20;99.90;;;;;;5039857;28;20074;-42
2023/04/02 02:20:46;;;;;;;11.32;10.23;;;7.20;99.90;;;;;;5040430;28;20021;-43
2023/04/02 02:23:12;;;;;;;13.02;10.60;;;7.20;99.90;;;;;;5039381;28;20435;-42
2023/04/02 02:25:39;;;;;;;14.68;11.32;;;7.20;99.90;;;;;;5040586;28;20750;-43
2023/04/02 02:28:30;;;;;;;11.35;10.23;;;7.20;99.90;;;;;;5040850;28;20036;-42
2023/04/02 02:31:03;;;;;;;12.98;10.90;;;7.20;99.90;;;;;;5040057;28;20833;-42
2023/04/02 02:33:40;;;;;;;13.95;11.32;;;7.10;99.90;;;;;;5040701;28;20036;-45
2023/04/02 02:36:21;;;;;;;11.95;10.20;;;7.10;99.90;;;;;;5039726;28;20462;-43
2023/04/02 02:38:54;;;;;;;11.98;9.55;;;7.00;99.90;;;;;;5020476;28;20526;-44
2023/04/02 02:41:50;;;;;;;13.18;9.80;;;7.00;99.90;;;;;;5035543;28;20501;-43
2023/04/02 02:44:22;;;;;;;11.50;9.68;;;7.00;99.90;;;;;;5019558;28;20045;-43
2023/04/02 02:46:54;;;;;;;13.20;10.05;;;7.00;99.90;;;;;;5038909;28;20057;-43
2023/04/02 02:49:27;;;;;;;11.88;9.88;;;7.00;99.90;;;;;;5039541;28;20473;-43
2023/04/02 02:52:12;;;;;;;12.10;8.77;;;6.90;99.90;;;;;;5039322;28;20419;-43
2023/04/02 02:54:43;;;;;;;11.60;8.60;;;6.90;99.90;;;;;;5040646;28;20489;-42
2023/04/02 02:57:13;;;;;;;9.88;8.88;;;6.80;99.90;;;;;;5038822;28;20641;-43
2023/04/02 02:59:41;;;;;;;10.45;8.68;;;6.80;99.90;;;;;;5040537;28;20025;-43
2023/04/02 03:02:07;;;;;;;10.93;9.25;;;6.80;99.90;;;;;;5039335;28;20043;-44
2023/04/02 03:04:34;;;;;;;9.98;8.93;;;6.80;99.90;;;;;;5020229;28;20504;-44
2023/04/02 03:07:02;;;;;;;11.07;8.82;;;6.70;99.90;;;;;;5034506;28;20032;-43
2023/04/02 03:09:38;;;;;;;12.18;8.52;;;6.70;99.90;;;;;;5040111;28;20049;-44
2023/04/02 03:12:31;;;;;;;8.68;7.53;;;6.70;99.90;;;;;;5039590;28;20052;-43
2023/04/02 03:15:02;;;;;;;;;;;6.60;99.90;;;;;;5021926;28;20034;-43
2023/04/02 03:17:45;;;;;;;8.82;7.65;;;6.60;99.90;;;;;;5036358;28;19947;-43
2023/04/02 03:20:44;;;;;;;7.78;6.70;;;6.50;99.90;;;;;;5019014;28;20865;-43
2023/04/02 03:23:27;;;;;;;8.77;6.88;;;6.60;99.90;;;;;;5039373;28;20032;-43
2023/04/02 03:26:12;;;;;;;6.30;5.68;;;6.50;99.90;;;;;;5040165;28;20032;-43
2023/04/02 03:28:42;;;;;;;7.47;6.78;;;6.50;99.90;;;;;;5039923;28;20579;-44
2023/04/02 03:31:30;;;;;;;9.95;7.70;;;6.50;99.90;;;;;;5041774;28;20504;-44
2023/04/02 03:34:04;;;;;;;9.73;8.73;;;6.50;99.90;;;;;;5040802;28;20122;-43
2023/04/02 03:36:33;;;;;;;8.07;7.00;;;6.50;99.90;;;;;;5044038;28;20663;-43
2023/04/02 03:39:09;;;;;;;8.90;8.00;;;6.50;99.90;;;;;;5039645;28;20021;-43
2023/04/02 03:41:47;;;;;;;11.43;8.43;;;6.40;99.90;;;;;;5044187;28;20166;-43
2023/04/02 03:44:19;;;;;;;12.05;8.43;;;6.40;99.90;;;;;;5040103;28;20048;-44
2023/04/02 03:46:56;;;;;;;11.48;7.85;;;6.40;99.90;;;;;;5042710;28;20477;-43
2023/04/02 03:49:52;;;;;;;11.45;9.63;;;6.50;99.90;;;;;;5039929;28;20048;-42
2023/04/02 03:52:28;;;;;;;10.75;8.95;;;6.40;99.90;;;;;;5043125;28;20479;-43
2023/04/02 03:54:57;;;;;;;11.15;8.98;;;6.40;99.90;;;;;;5042870;28;20032;-44
2023/04/02 03:57:40;;;;;;;9.73;8.35;;;6.40;99.90;;;;;;5042358;28;20112;-43
2023/04/02 04:00:20;;;;;;;8.82;7.80;;;6.40;99.90;;;;;;5031676;28;20148;-44
2023/04/02 04:02:56;;;;;;;8.32;7.40;;;6.40;99.90;;;;;;5043727;28;20055;-43
2023/04/02 04:05:35;;;;;;;9.13;8.07;;;6.40;99.90;;;;;;5032507;28;20726;-43
2023/04/02 04:08:05;;;;;;;12.52;8.02;;;6.40;99.90;;;;;;5042214;28;20021;-43
2023/04/02 04:10:32;;;;;;;9.02;7.93;;;6.30;99.90;;;;;;5042983;28;20041;-43
2023/04/02 04:13:19;;;;;;;8.82;7.63;;;6.40;99.90;;;;;;5042722;28;20131;-43
2023/04/02 04:15:56;;;;;;;10.40;8.43;;;6.40;99.90;;;;;;5032368;28;20543;-43
2023/04/02 04:18:38;;;;;;;10.80;8.70;;;6.40;99.90;;;;;;5042720;28;20025;-43
2023/04/02 04:21:36;;;;;;;11.85;9.00;;;6.40;99.90;;;;;;5042647;28;20183;-42
2023/04/02 04:24:11;;;;;;;12.35;9.93;;;6.30;99.90;;;;;;5041490;28;20536;-44
2023/04/02 04:26:43;;;;;;;12.43;9.75;;;6.30;99.90;;;;;;5042480;28;20117;-42
2023/04/02 04:29:44;;;;;;;12.50;9.70;;;6.20;99.90;;;;;;5041255;28;20086;-42
2023/04/02 04:32:26;;;;;;;10.00;8.65;;;6.20;99.90;;;;;;5042715;28;20044;-42
2023/04/02 04:34:57;;;;;;;10.90;9.02;;;6.20;99.90;;;;;;5042514;28;20032;-43
2023/04/02 04:37:28;;;;;;;12.68;9.35;;;6.10;99.90;;;;;;5041376;28;20061;-43
2023/04/02 04:40:16;;;;;;;12.30;9.10;;;6.10;99.90;;;;;;5043041;28;20229;-42
2023/04/02 04:42:46;;;;;;;10.25;7.90;;;6.00;99.90;;;;;;5041234;28;20032;-42
2023/04/02 04:45:29;;;;;;;12.27;8.52;;;6.00;99.90;;;;;;5042173;28;20075;-43
2023/04/02 04:48:16;;;;;;;10.57;8.10;;;6.00;99.90;;;;;;5042044;28;20045;-42
2023/04/02 04:51:18;;;;;;;13.27;7.97;;;6.00;99.90;;;;;;5041060;28;20033;-43
2023/04/02 04:53:50;;;;;;;8.82;7.07;;;6.00;99.90;;;;;;5022490;28;20029;-43
2023/04/02 04:56:22;;;;;;;9.47;6.67;;;5.90;99.90;;;;;;5040658;28;21407;-44
2023/04/02 04:58:51;;;;;;;;;;;5.90;99.90;;;;;;5042746;28;20024;-42
2023/04/02 05:01:36;;;;;;;7.50;6.20;;;5.80;99.90;;;;;;5041720;28;19916;-44
2023/04/02 05:04:05;;;;;;;8.48;6.13;;;5.80;99.90;;;;;;5041389;28;20057;-43
2023/04/02 05:06:49;;;;;;;8.93;6.53;;;5.80;99.90;;;;;;5041400;28;20747;-44
2023/04/02 05:09:29;;;;;;;9.23;6.10;;;5.80;99.90;;;;;;5041428;28;20044;-43
2023/04/02 05:12:20;;;;;;;7.68;5.53;;;5.80;99.90;;;;;;5040136;28;20047;-43
2023/04/02 05:14:57;;;;;;;6.60;5.32;;;5.70;99.90;;;;;;5041587;28;20112;-44
2023/04/02 05:17:27;;;;;;;6.07;5.47;;;5.80;99.90;;;;;;5038710;28;20037;-43
2023/04/02 05:20:08;;;;;;;6.65;5.18;;;5.70;99.90;;;;;;5042247;28;20021;-44
2023/04/02 05:22:51;;;;;;;5.82;4.93;;;5.70;99.90;;;;;;5039344;28;20048;-43
2023/04/02 05:25:27;;;;;;;5.60;4.32;;;5.70;99.90;;;;;;5041213;28;20131;-42
2023/04/02 05:28:14;;;;;;;6.72;4.45;;;5.70;99.90;;;;;;5042039;28;20029;-43
2023/04/02 05:30:51;;;;;;;8.30;4.63;;;5.60;99.90;;;;;;5042084;28;20029;-44
2023/04/02 05:33:28;;;;;;;5.00;3.92;;;5.50;99.90;;;;;;5030626;28;20120;-43
2023/04/02 05:36:10;;;;;;;7.43;4.40;;;5.50;99.90;;;;;;5041991;28;20028;-44
2023/04/02 05:38:38;;;;;;;4.77;3.40;;;5.40;99.90;;;;;;5032521;28;20090;-43
2023/04/02 05:41:07;;;;;;;4.53;3.20;;;5.40;99.90;;;;;;5041038;28;20143;-42
2023/04/02 05:43:36;;;;;;;5.50;3.58;;;5.40;99.90;;;;;;5041523;28;20631;-42
2023/04/02 05:46:12;;;;;;;4.68;3.30;;;5.40;99.90;;;;;;5040532;28;20045;-43
2023/04/02 05:48:39;;;;;;;5.15;3.40;;;5.40;99.90;;;;;;5040689;28;20036;-43
2023/04/02 05:51:10;;;;;;;4.93;3.28;;;5.40;99.90;;;;;;5040253;28;20029;-43
2023/04/02 05:53:44;;;;;;;6.63;2.95;;;5.40;99.90;;;;;;5040172;28;20028;-42
2023/04/02 05:56:32;;;;;;;5.13;3.10;;;5.40;99.90;;;;;;5040668;28;20025;-43
2023/04/02 05:59:07;;;;;;;6.30;2.58;;;5.30;99.90;;;;;;5039398;28;20099;-43
2023/04/02 06:01:48;;;;;;;4.60;3.10;;;5.30;99.90;;;;;;5040168;28;20837;-43
2023/04/02 06:04:35;;;;;;;7.63;3.08;;;5.20;99.90;;;;;;5040377;28;20029;-43
2023/04/02 06:07:14;;;;;;;6.22;2.63;;;5.20;99.90;;;;;;5040155;28;20089;-42
2023/04/02 06:10:02;;;;;;;4.32;2.30;;;5.20;99.90;;;;;;5041140;28;20088;-43
2023/04/02 06:12:47;;;;;;;6.35;2.53;;;5.20;99.90;;;;;;5040472;28;20107;-43
2023/04/02 06:15:19;;;;;;;4.43;2.20;;;5.20;99.90;;;;;;5039899;28;20480;-42
2023/04/02 06:18:06;;;;;;;4.55;2.13;;;5.20;99.90;;;;;;5041031;28;20872;-42
2023/04/02 06:20:38;;;;;;;5.60;2.28;;;5.20;99.90;;;;;;5040437;28;20612;-42
2023/04/02 06:23:24;;;;;;;7.35;2.55;;;5.20;99.90;;;;;;5039817;28;20068;-43
2023/04/02 06:26:08;;;;;;;5.57;2.30;;;5.20;99.90;;;;;;5041739;28;20021;-42
2023/04/02 06:29:03;;;;;;;4.18;2.05;;;5.10;99.90;;;;;;5040088;28;20036;-43
2023/04/02 06:31:55;;;;;;;6.13;2.45;;;5.10;99.90;;;;;;5040856;28;20111;-44
2023/04/02 06:34:24;;;;;;;4.70;2.67;;;5.10;99.90;;;;;;5039979;28;20729;-46
2023/04/02 06:36:54;;;;;;;6.75;2.67;;;5.10;99.90;;;;;;5040926;28;20127;-44
2023/04/02 06:39:21;;;;;;;2.92;2.20;;;5.20;99.90;;;;;;5040494;28;20025;-44
2023/04/02 06:42:08;;;;;;;4.97;2.70;;;5.20;99.90;;;;;;5041209;28;20057;-43
2023/04/02 06:44:36;;;;;;;4.72;2.90;;;5.00;99.90;;;;;;5041054;28;20130;-44
2023/04/02 06:47:12;;;;;;;4.20;2.17;;;5.00;99.90;;;;;;5020542;28;20053;-43
2023/04/02 06:49:46;;;;;;;5.35;2.70;;;4.90;99.90;;;;;;5035067;28;20029;-43
2023/04/02 06:52:35;;;;;;;4.25;2.72;;;4.90;99.90;;;;;;5020527;28;20124;-42
2023/04/02 06:55:16;;;;;;;3.35;2.50;;;4.90;99.90;;;;;;5038345;28;20044;-44
2023/04/02 06:57:41;;;;;;;6.63;2.35;;;4.80;99.90;;;;;;5040435;28;20366;-44
2023/04/02 07:00:56;;;;;;;5.45;2.80;;;4.80;99.90;;;;;;5040045;28;20484;-43
2023/04/02 07:03:30;;;;;;;7.15;3.45;;;4.80;99.90;;;;;;5016864;28;20040;-44
2023/04/02 07:05:57;;;;;;;6.95;3.42;;;4.80;99.90;;;;;;5036486;28;20045;-43
2023/04/02 07:08:26;;;;;;;4.82;3.30;;;4.80;99.90;;;;;;5044417;28;20095;-43
2023/04/02 07:10:52;;;;;;;4.57;3.33;;;4.80;99.90;;;;;;5043656;28;20120;-42
2023/04/02 07:13:20;;;;;;;6.68;2.90;;;4.80;99.90;;;;;;5043806;28;20043;-44
2023/04/02 07:15:51;;;;;;;4.43;2.90;;;4.80;99.90;;;;;;5044094;28;20052;-43
2023/04/02 07:18:31;;;;;;;5.82;2.80;;;4.90;99.90;;;;;;5043147;28;20032;-43
2023/04/02 07:20:58;;;;;;;7.47;3.95;;;4.90;99.90;;;;;;5043911;28;20021;-43
2023/04/02 07:23:26;;;;;;;4.20;2.75;;;4.90;99.90;;;;;;5043835;28;20856;-43
2023/04/02 07:26:11;;;;;;;6.95;3.25;;;4.90;99.90;;;;;;5042835;28;20024;-44
2023/04/02 07:28:37;;;;;;;7.40;3.15;;;4.90;99.90;;;;;;5023768;28;20432;-43
2023/04/02 07:31:03;;;;;;;4.95;3.00;;;5.00;99.90;;;;;;5039211;28;20033;-43
2023/04/02 07:33:29;;;;;;;6.70;3.20;;;5.00;99.90;;;;;;5043736;28;20021;-43
2023/04/02 07:35:56;;;;;;;7.88;2.95;;;5.00;99.90;;;;;;5044178;28;20029;-43
2023/04/02 07:38:22;;;;;;;6.82;3.15;;;5.10;99.90;;;;;;5042776;28;20087;-43
2023/04/02 07:40:48;;;;;;;3.95;2.63;;;5.20;99.90;;;;;;5043119;28;20472;-43
2023/04/02 07:43:13;;;;;;;4.93;3.50;;;5.20;99.90;;;;;;5042987;28;20024;-43
2023/04/02 07:45:39;;;;;;;6.90;3.92;;;5.20;99.90;;;;;;5042667;28;20128;-42
2023/04/02 07:48:06;;;;;;;9.18;4.07;;;5.30;99.90;;;;;;5043453;28;20040;-43
2023/04/02 07:50:32;;;;;;;6.93;3.63;;;5.40;99.90;;;;;;5043160;28;20029;-42
2023/04/02 07:52:58;;;;;;;6.30;4.05;;;5.40;99.90;;;;;;5042978;28;20032;-41
2023/04/02 07:55:23;;;;;;;7.53;3.53;;;5.40;99.90;;;;;;5043511;28;20059;-43
2023/04/02 07:57:53;;;;;;;4.60;3.38;;;5.40;99.90;;;;;;5042965;28;20028;-42
2023/04/02 08:00:20;;;;;;;5.63;3.35;;;5.40;99.90;;;;;;5041750;28;20196;-42
2023/04/02 08:02:46;;;;;;;4.65;2.92;;;5.40;99.90;;;;;;5042578;28;20083;-43
2023/04/02 08:05:11;;;;;;;7.05;3.60;;;5.50;99.90;;;;;;5042725;28;20027;-43
2023/04/02 08:07:38;;;;;;;5.40;3.55;;;5.50;99.90;;;;;;5041986;28;20380;-43
2023/04/02 08:10:04;;;;;;;5.75;3.47;;;5.50;99.90;;;;;;5042122;28;20037;-43
2023/04/02 08:12:30;;;;;;;4.93;3.40;;;5.60;99.90;;;;;;5043082;28;20123;-43
2023/04/02 08:14:55;;;;;;;5.20;3.65;;;5.60;99.90;;;;;;5041777;28;20033;-44
2023/04/02 08:17:21;;;;;;;6.55;3.88;;;5.60;99.90;;;;;;5042644;28;20021;-43
2023/04/02 08:19:47;;;;;;;5.15;3.13;;;5.50;99.90;;;;;;5043108;28;20067;-42
2023/04/02 08:22:13;;;;;;;5.82;3.25;;;5.50;99.90;;;;;;5041351;28;20806;-43
2023/04/02 08:24:38;;;;;;;5.80;3.28;;;5.40;99.90;;;;;;5042301;28;20055;-43
2023/04/02 08:27:04;;;;;;;4.03;3.20;;;5.50;99.90;;;;;;5042022;28;20029;-44
2023/04/02 08:29:31;;;;;;;5.85;3.97;;;5.50;99.90;;;;;;5042344;28;20037;-43
2023/04/02 08:32:00;;;;;;;6.22;3.67;;;5.60;99.90;;;;;;5042600;28;20531;-42
2023/04/02 08:34:27;;;;;;;4.68;2.95;;;5.50;99.90;;;;;;5042002;28;20032;-44
2023/04/02 08:36:56;;;;;;;4.00;3.10;;;5.50;99.90;;;;;;5042629;28;20033;-43
2023/04/02 08:39:22;;;;;;;5.97;3.20;;;5.50;99.90;;;;;;5042108;28;20028;-42
2023/04/02 08:41:59;;;;;;;6.10;3.20;;;5.50;99.90;;;;;;5042759;28;20028;-43
2023/04/02 08:44:51;;;;;;;4.60;2.70;;;5.50;99.90;;;;;;5042098;28;20033;-43
2023/04/02 08:47:19;;;;;;;4.78;3.10;;;5.60;99.90;;;;;;5041137;28;20053;-43
2023/04/02 08:50:06;;;;;;;5.97;3.38;;;5.60;99.90;;;;;;5041724;28;20033;-43
2023/04/02 08:52:36;;;;;;;5.55;3.65;;;5.70;99.90;;;;;;5042364;28;20033;-43
2023/04/02 08:55:12;;;;;;;4.07;3.10;;;5.80;99.90;;;;;;5031328;28;20036;-42
2023/04/02 08:57:53;;;;;;;9.60;3.85;;;5.80;99.90;;;;;;5040985;28;20886;-43
2023/04/02 09:00:26;;;;;;;6.03;3.90;;;5.80;99.90;;;;;;5032267;28;20078;-43
2023/04/02 09:02:57;;;;;;;7.10;3.08;;;5.80;99.90;;;;;;5041075;28;20112;-43
2023/04/02 09:05:31;;;;;;;4.70;3.00;;;5.90;99.90;;;;;;5031411;28;20055;-43
2023/04/02 09:08:00;;;;;;;4.85;2.78;;;6.00;99.90;;;;;;5041729;28;20029;-43
2023/04/02 09:10:36;;;;;;;6.45;3.10;;;6.00;99.90;;;;;;5040599;28;20073;-43
2023/04/02 09:13:12;;;;;;;5.93;2.83;;;6.00;99.90;;;;;;5041110;28;20072;-43
2023/04/02 09:15:38;;;;;;;6.50;2.92;;;6.00;99.90;;;;;;5041591;28;20021;-42
2023/04/02 09:18:14;;;;;;;5.07;2.75;;;6.00;99.90;;;;;;5040285;28;20035;-43
2023/04/02 09:20:39;;;;;;;4.70;2.70;;;6.00;99.90;;;;;;5041529;28;20404;-43
2023/04/02 09:23:17;;;;;;;4.85;2.97;;;6.10;99.90;;;;;;5041416;28;20033;-43
2023/04/02 09:25:46;;;;;;;6.45;2.80;;;6.20;99.90;;;;;;5038618;28;20524;-44
2023/04/02 09:28:12;;;;;;;4.78;2.67;;;6.30;99.90;;;;;;5040838;28;20037;-43
2023/04/02 09:30:57;;;;;;;4.72;2.90;;;6.30;99.90;;;;;;5041073;28;20035;-44
2023/04/02 09:33:49;;;;;;;4.10;2.80;;;6.40;99.90;;;;;;5041799;28;20436;-43
2023/04/02 09:36:29;;;;;;;6.75;2.67;;;6.50;99.90;;;;;;5040748;28;20029;-44
2023/04/02 09:39:19;;;;;;;4.90;2.10;;;6.60;99.90;;;;;;5040651;28;20033;-43
2023/04/02 09:41:46;;;;;;;3.28;2.20;;;6.70;99.90;;;;;;5027374;28;20049;-44
2023/04/02 09:44:25;;;;;;;5.03;2.45;;;6.80;99.90;;;;;;5041230;28;20021;-43
2023/04/02 09:46:51;;;;;;;3.75;2.30;;;6.90;99.90;;;;;;5031929;28;20077;-43
2023/04/02 09:49:20;;;;;;;3.30;2.10;;;6.80;99.90;;;;;;5040993;28;20151;-44
2023/04/02 09:52:07;;;;;;;5.10;1.83;;;6.90;99.90;;;;;;5040725;28;20794;-42
2023/04/02 09:54:40;;;;;;;3.42;2.15;;;6.90;99.90;;;;;;5041696;28;20025;-43
2023/04/02 09:57:15;;;;;;;3.30;2.15;;;6.90;99.90;;;;;;5030295;28;20025;-43
2023/04/02 09:59:41;;;;;;;2.70;1.98;;;6.90;99.90;;;;;;5039696;28;20916;-43
2023/04/02 10:02:27;;;;;;;3.83;1.95;;;6.90;99.90;;;;;;5039913;28;20033;-42
2023/04/02 10:04:52;;;;;;;4.90;2.00;;;6.80;99.90;;;;;;5040724;28;20017;-43
2023/04/02 10:07:36;;;;;;;3.92;1.98;;;6.70;99.90;;;;;;5039488;28;20648;-43
2023/04/02 10:10:30;;;;;;;2.53;1.85;;;6.70;99.90;;;;;;5040305;28;20029;-43
2023/04/02 10:13:01;;;;;;;4.45;2.00;;;6.70;99.90;;;;;;5031785;28;20045;-43
2023/04/02 10:15:52;;;;;;;6.20;2.25;;;6.80;99.90;;;;;;5040645;28;20488;-43
2023/04/02 10:18:42;;;;;;;2.65;2.03;;;6.70;99.90;;;;;;5040447;28;20124;-43
2023/04/02 10:21:11;;;;;;;4.05;2.50;;;6.70;99.90;;;;;;5039425;28;20078;-42
2023/04/02 10:23:38;;;;;;;3.78;1.98;;;6.60;99.90;;;;;;5041543;28;20040;-43
2023/04/02 10:26:29;;;;;;;3.80;2.15;;;6.60;99.90;;;;;;5040697;28;20029;-43
2023/04/02 10:29:13;;;;;;;5.45;2.20;;;6.70;99.90;;;;;;5039789;28;20587;-43
2023/04/02 10:32:03;;;;;;;4.07;1.92;;;6.70;99.90;;;;;;5041224;28;20040;-44
2023/04/02 10:34:47;;;;;;;4.07;2.05;;;6.70;99.90;;;;;;5040655;28;20091;-42
2023/04/02 10:37:28;;;;;;;4.03;2.38;;;6.80;99.90;;;;;;5039791;28;20035;-43
2023/04/02 10:39:58;;;;;;;4.85;2.67;;;6.70;99.90;;;;;;5021399;28;20553;-42
2023/04/02 10:42:36;;;;;;;4.20;2.42;;;6.60;99.90;;;;;;5039476;28;20462;-43
2023/04/02 10:45:34;;;;;;;6.40;2.65;;;6.60;99.90;;;;;;5024068;28;20115;-44
2023/04/02 10:48:15;;;;;;;3.50;2.22;;;6.50;99.90;;;;;;5043128;28;20084;-43
2023/04/02 10:50:48;;;;;;;7.20;3.00;;;6.50;99.90;;;;;;5044680;28;20045;-43
2023/04/02 10:53:18;;;;;;;5.10;2.30;;;6.50;99.90;;;;;;5043579;28;20118;-42
2023/04/02 10:56:07;;;;;;;2.92;2.45;;;6.50;99.90;;;;;;5043885;28;20374;-43
2023/04/02 10:58:41;;;;;;;6.15;2.58;;;6.60;99.90;;;;;;5043650;28;20033;-42
2023/04/02 11:01:22;;;;;;;6.53;2.70;;;6.70;99.90;;;;;;5044271;28;20029;-43
2023/04/02 11:04:16;;;;;;;3.60;2.33;;;6.80;99.90;;;;;;5043504;28;20032;-44
2023/04/02 11:06:44;;;;;;;;;;;6.90;99.90;;;;;;5045451;28;20025;-44
2023/04/02 11:09:17;;;;;;;3.63;2.10;;;7.00;99.90;;;;;;5043272;28;19982;-43
2023/04/02 11:11:45;;;;;;;7.30;2.10;;;7.00;99.90;;;;;;5044228;28;20570;-43
2023/04/02 11:14:15;;;;;;;6.82;2.78;;;7.00;99.90;;;;;;5040534;28;20052;-43
2023/04/02 11:16:42;;;;;;;4.25;2.28;;;7.00;99.90;;;;;;5043632;28;20025;-43
2023/04/02 11:19:13;;;;;;;5.05;2.50;;;7.00;99.90;;;;;;5043455;28;20033;-44
2023/04/02 11:21:45;;;;;;;7.00;2.42;;;7.00;99.90;;;;;;5044422;28;20036;-42
2023/04/02 11:24:42;;;;;;;4.73;2.40;;;7.00;99.90;;;;;;5042794;28;20033;-43
2023/04/02 11:27:10;;;;;;;3.47;1.85;;;7.10;99.90;;;;;;5042794;28;20498;-43
2023/04/02 11:29:48;;;;;;;5.13;2.53;;;7.10;99.90;;;;;;5043761;28;20933;-43
2023/04/02 11:32:19;;;;;;;4.88;2.25;;;7.10;99.90;;;;;;5043210;28;20033;-42
2023/04/02 11:34:47;;;;;;;5.00;2.30;;;7.10;99.90;;;;;;5044145;28;20120;-43
2023/04/02 11:37:32;;;;;;;4.50;2.30;;;7.20;99.90;;;;;;5043334;28;20116;-42
2023/04/02 11:40:21;;;;;;;4.97;2.35;;;7.30;99.90;;;;;;5043220;28;20037;-43
2023/04/02 11:42:49;;;;;;;4.10;2.03;;;7.40;99.90;;;;;;5043511;28;20109;-43
2023/04/02 11:47:58;;;;;;;5.57;2.15;;;7.50;99.90;;;;;;5043595;28;20056;-43
2023/04/02 11:50:41;;;;;;;4.53;2.22;;;7.60;99.90;;;;;;5043006;28;20036;-43
2023/04/02 11:53:09;;;;;;;;;;;7.60;99.90;;;;;;5042556;28;20029;-43
2023/04/02 11:55:36;;;;;;;3.25;2.08;;;7.70;99.90;;;;;;5044121;28;19913;-42
2023/04/02 11:58:08;;;;;;;2.78;2.03;;;7.70;99.90;;;;;;5043411;28;20032;-43
2023/04/02 12:01:10;;;;;;;3.63;2.00;;;7.70;99.90;;;;;;5041450;28;20059;-44
2023/04/02 12:04:11;;;;;;;4.82;2.20;;;7.80;99.90;;;;;;5036410;28;20029;-43
2023/04/02 12:06:45;;;;;;;3.38;1.70;;;7.80;99.90;;;;;;5033472;28;20025;-43
2023/04/02 12:09:17;;;;;;;6.38;2.10;;;7.80;99.90;;;;;;5042159;28;20025;-43
2023/04/02 12:11:46;;;;;;;5.82;2.30;;;7.90;99.90;;;;;;5042817;28;20029;-44
2023/04/02 12:14:36;;;;;;;6.97;2.10;;;7.90;99.90;;;;;;5028410;28;20036;-44
2023/04/02 12:17:15;;;;;;;3.53;2.08;;;7.90;99.90;;;;;;5033395;28;20033;-44
2023/04/02 12:19:47;;;;;;;4.03;2.15;;;8.00;99.90;;;;;;5042223;28;20033;-44
2023/04/02 12:22:22;;;;;;;4.38;2.30;;;8.00;99.90;;;;;;5041837;28;20503;-44
2023/04/02 12:24:48;;;;;;;4.25;1.90;;;8.00;99.90;;;;;;5042379;28;20025;-43
2023/04/02 12:27:21;;;;;;;3.03;1.88;;;8.10;99.90;;;;;;5041409;28;20471;-44
2023/04/02 12:29:49;;;;;;;2.53;1.73;;;8.10;99.90;;;;;;5042096;28;20067;-42
2023/04/02 12:32:22;;;;;;;2.30;1.58;;;8.20;99.90;;;;;;5042098;28;20024;-43
2023/04/02 12:34:50;;;;;;;2.40;1.75;;;8.20;99.90;;;;;;5041618;28;20029;-43
2023/04/02 12:37:22;;;;;;;2.30;1.70;;;8.30;99.90;;;;;;5042367;28;20063;-44
2023/04/02 12:39:52;;;;;;;3.23;1.77;;;8.30;99.90;;;;;;5042347;28;20112;-42
2023/04/02 12:42:30;;;;;;;4.75;1.92;;;8.40;99.90;;;;;;5041000;28;20781;-43
2023/04/02 12:44:55;;;;;;;4.10;1.90;;;8.40;99.90;;;;;;5041185;28;20040;-43
2023/04/02 12:47:21;;;;;;;2.97;1.45;;;8.40;99.90;;;;;;5039964;28;20041;-43
2023/04/02 12:49:47;;;;;;;1.80;1.35;;;8.50;99.90;;;;;;5041099;28;20040;-43
2023/04/02 12:52:21;;;;;;;2.63;1.70;;;8.60;99.90;;;;;;5041404;28;20536;-42
2023/04/02 12:54:52;;;;;;;2.47;1.55;;;8.70;99.90;;;;;;5041301;28;20053;-44
2023/04/02 12:57:29;;;;;;;2.78;1.50;;;8.70;99.90;;;;;;5041182;28;20037;-43
2023/04/02 12:59:56;;;;;;;4.72;1.83;;;8.80;99.90;;;;;;5041566;28;20029;-43
2023/04/02 13:02:25;;;;;;;2.80;1.45;;;8.90;99.90;;;;;;5040459;28;20265;-43
2023/04/02 13:04:53;;;;;;;3.55;1.48;;;9.00;99.90;;;;;;5043650;28;20053;-43
2023/04/02 13:07:22;;;;;;;6.85;2.33;;;8.90;99.90;;;;;;5045436;28;20031;-44
2023/04/02 13:09:49;;;;;;;2.85;1.58;;;8.90;99.90;;;;;;5022228;28;20037;-44
2023/04/02 13:12:26;;;;;;;4.85;1.75;;;8.90;99.90;;;;;;5036806;28;20025;-43
2023/04/02 13:14:55;;;;;;;3.85;1.42;;;8.90;99.90;;;;;;5043002;28;20544;-34
2023/04/02 13:17:42;;;;;;;4.78;1.75;;;9.00;99.90;;;;;;5041326;28;20094;-34
2023/04/02 13:20:31;;;;;;;3.95;1.25;;;9.00;99.90;;;;;;5021818;28;20033;-34
2023/04/02 13:22:58;;;;;;;3.58;1.58;;;9.00;99.90;;;;;;5038495;28;20118;-34
2023/04/02 13:25:30;;;;;;;2.22;1.45;;;9.10;99.90;;;;;;5042310;28;20029;-33
2023/04/02 13:27:56;;;;;;;3.72;1.55;;;9.10;99.90;;;;;;5042209;28;20041;-33
2023/04/02 13:30:24;;;;;;;4.45;1.55;;;9.20;99.90;;;;;;5040829;28;20048;-34
2023/04/02 13:32:50;;;;;;;3.65;1.67;;;9.30;99.90;;;;;;5042065;28;20024;-34
2023/04/02 13:35:16;;;;;;;6.03;1.85;;;9.30;99.90;;;;;;5041209;28;20515;-33
2023/04/02 13:37:42;;;;;;;4.15;1.75;;;9.30;99.80;;;;;;5041374;28;20392;-34
2023/04/02 13:40:13;;;;;;;3.25;1.50;;;9.30;99.70;;;;;;5041479;28;20071;-33
2023/04/02 13:42:40;;;;;;;2.40;1.70;;;9.40;99.90;;;;;;5050612;28;20032;-34